Time;durP1;ratioP1;P1;durP2;ratioP2;P2;SDS_P1;SDS_P2;PMS_P1;PMS_P2;Temp;Humidity;BMP_temperature;BMP_pressure;BME280_temperature;BME280_humidity;BME280_pressure;Samples;Min_cycle;Max_cycle;Signal;HPM_P1;HPM_P2
2023/04/02 00:00:03;;;;;;;1.27;0.60;;;;;;;;;;5063775;28;20382;-84
2023/04/02 00:02:30;;;;;;;1.13;0.60;;;;;;;;;;5066837;28;20389;-85
2023/04/02 00:05:18;;;;;;;1.92;0.63;;;;;;;;;;5065851;28;20855;-85
2023/04/02 00:07:47;;;;;;;1.00;0.60;;;;;;;;;;5072991;28;20419;-84
2023/04/02 00:10:32;;;;;;;0.60;0.60;;;;;;;;;;5070931;28;20425;-84
2023/04/02 00:13:10;;;;;;;0.90;0.50;;;;;;;;;;5071407;28;20385;-85
2023/04/02 00:15:37;;;;;;;1.50;0.80;;;;;;;;;;5059252;28;20459;-85
2023/04/02 00:18:03;;;;;;;1.20;0.80;;;;;;;;;;5054290;28;20464;-85
2023/04/02 00:20:31;;;;;;;0.70;0.50;;;;;;;;;;5069379;28;20376;-85
2023/04/02 00:22:57;;;;;;;1.88;0.85;;;;;;;;;;5054535;28;20459;-85
2023/04/02 00:25:25;;;;;;;1.25;0.60;;;;;;;;;;5065531;28;20786;-85
2023/04/02 00:27:51;;;;;;;1.30;0.60;;;;;;;;;;5067526;28;20407;-85
2023/04/02 00:30:17;;;;;;;0.63;0.40;;;;;;;;;;5058872;28;20385;-85
2023/04/02 00:32:44;;;;;;;1.20;0.53;;;;;;;;;;5063754;28;20746;-85
2023/04/02 00:35:18;;;;;;;1.70;0.70;;;;;;;;;;5038966;28;20454;-85
2023/04/02 00:37:44;;;;;;;1.90;0.50;;;;;;;;;;5057858;28;20379;-86
2023/04/02 00:40:27;;;;;;;0.63;0.50;;;;;;;;;;5057304;28;20374;-85
2023/04/02 00:42:55;;;;;;;0.85;0.50;;;;;;;;;;5055366;28;20364;-85
2023/04/02 00:45:29;;;;;;;1.05;0.52;;;;;;;;;;5060388;28;20406;-85
2023/04/02 00:47:59;;;;;;;1.33;0.70;;;;;;;;;;5067469;28;20378;-85
2023/04/02 00:50:33;;;;;;;1.42;0.85;;;;;;;;;;5055673;28;20399;-86
2023/04/02 00:53:03;;;;;;;0.60;0.50;;;;;;;;;;5062559;28;20397;-85
2023/04/02 00:55:35;;;;;;;1.55;0.77;;;;;;;;;;5065284;28;20460;-85
2023/04/02 00:58:01;;;;;;;1.40;0.70;;;;;;;;;;5058877;28;20381;-85
2023/04/02 01:00:32;;;;;;;1.40;0.63;;;;;;;;;;5061087;28;20380;-85
2023/04/02 01:03:17;;;;;;;1.65;0.57;;;;;;;;;;5047002;28;21009;-85
2023/04/02 01:05:44;;;;;;;1.60;0.60;;;;;;;;;;5051908;28;20463;-86
2023/04/02 01:08:30;;;;;;;1.60;0.75;;;;;;;;;;5067075;28;20781;-85
2023/04/02 01:11:11;;;;;;;1.83;0.60;;;;;;;;;;5071976;28;20406;-85
2023/04/02 01:13:37;;;;;;;0.50;0.50;;;;;;;;;;5063893;28;20376;-85
2023/04/02 01:16:15;;;;;;;1.60;0.60;;;;;;;;;;5052327;28;20916;-85
2023/04/02 01:18:45;;;;;;;0.67;0.60;;;;;;;;;;5056583;28;20430;-85
2023/04/02 01:21:35;;;;;;;1.10;0.60;;;;;;;;;;5055316;28;20377;-85
2023/04/02 01:24:04;;;;;;;1.10;0.50;;;;;;;;;;5057246;28;20897;-86
2023/04/02 01:26:33;;;;;;;0.55;0.50;;;;;;;;;;5061631;28;20800;-86
2023/04/02 01:29:02;;;;;;;1.07;0.50;;;;;;;;;;5065325;28;20457;-86
2023/04/02 01:31:29;;;;;;;0.80;0.43;;;;;;;;;;5069540;28;20418;-86
2023/04/02 01:33:55;;;;;;;1.00;0.57;;;;;;;;;;5067392;28;20484;-86
2023/04/02 01:36:30;;;;;;;0.80;0.50;;;;;;;;;;5068020;28;20459;-86
2023/04/02 01:39:15;;;;;;;0.68;0.45;;;;;;;;;;5053305;28;20385;-85
2023/04/02 01:41:44;;;;;;;0.60;0.50;;;;;;;;;;5051096;28;20463;-84
2023/04/02 01:44:13;;;;;;;0.57;0.40;;;;;;;;;;5053608;28;20413;-85
2023/04/02 01:46:40;;;;;;;1.13;0.60;;;;;;;;;;5056211;28;20423;-85
2023/04/02 01:49:11;;;;;;;0.70;0.50;;;;;;;;;;5058387;28;20388;-86
2023/04/02 01:51:41;;;;;;;0.80;0.57;;;;;;;;;;5053166;28;20423;-86
2023/04/02 01:54:07;;;;;;;1.55;0.70;;;;;;;;;;5052163;28;20417;-86
2023/04/02 01:56:34;;;;;;;1.58;0.70;;;;;;;;;;5053133;28;20755;-85
2023/04/02 01:59:01;;;;;;;1.33;0.50;;;;;;;;;;5062088;28;20397;-85
2023/04/02 02:01:33;;;;;;;0.80;0.50;;;;;;;;;;5057244;28;20366;-85
2023/04/02 02:03:59;;;;;;;1.30;0.70;;;;;;;;;;5050063;28;20875;-86
2023/04/02 02:06:25;;;;;;;0.82;0.60;;;;;;;;;;5050452;28;20924;-84
2023/04/02 02:08:54;;;;;;;2.05;0.70;;;;;;;;;;5049824;28;20851;-84
2023/04/02 02:11:22;;;;;;;1.15;0.70;;;;;;;;;;5055732;28;20386;-85
2023/04/02 02:13:56;;;;;;;2.40;0.70;;;;;;;;;;5056760;28;20408;-86
2023/04/02 02:16:22;;;;;;;0.82;0.63;;;;;;;;;;5054526;28;20388;-86
2023/04/02 02:18:50;;;;;;;1.00;0.52;;;;;;;;;;5055640;28;20424;-85
2023/04/02 02:21:31;;;;;;;1.33;0.60;;;;;;;;;;5054133;28;20481;-85
2023/04/02 02:23:57;;;;;;;1.45;0.70;;;;;;;;;;5060971;28;20391;-85
2023/04/02 02:26:25;;;;;;;0.77;0.70;;;;;;;;;;5054864;28;20389;-85
2023/04/02 02:28:54;;;;;;;1.50;0.70;;;;;;;;;;5057958;28;20378;-85
2023/04/02 02:31:26;;;;;;;1.17;0.88;;;;;;;;;;5056710;28;20444;-87
2023/04/02 02:33:55;;;;;;;1.00;0.70;;;;;;;;;;5055374;28;20950;-86
2023/04/02 02:36:21;;;;;;;0.90;0.60;;;;;;;;;;5053735;28;20488;-86
2023/04/02 02:38:56;;;;;;;0.70;0.50;;;;;;;;;;5055147;28;20435;-86
2023/04/02 02:41:42;;;;;;;1.10;0.70;;;;;;;;;;5052824;28;20389;-85
2023/04/02 02:44:08;;;;;;;1.27;0.50;;;;;;;;;;5056350;28;20381;-85
2023/04/02 02:46:36;;;;;;;0.73;0.60;;;;;;;;;;5054784;28;20466;-86
2023/04/02 02:49:03;;;;;;;1.67;0.70;;;;;;;;;;5057822;28;20470;-85
2023/04/02 02:51:52;;;;;;;1.65;0.80;;;;;;;;;;5053050;28;20386;-85
2023/04/02 02:54:19;;;;;;;0.90;0.68;;;;;;;;;;5055059;28;20485;-85
2023/04/02 02:56:47;;;;;;;1.40;0.80;;;;;;;;;;5056847;28;20389;-86
2023/04/02 02:59:14;;;;;;;0.85;0.75;;;;;;;;;;5036592;28;20401;-85
2023/04/02 03:01:41;;;;;;;1.23;0.80;;;;;;;;;;5061578;28;20384;-85
2023/04/02 03:04:07;;;;;;;1.10;0.88;;;;;;;;;;5053986;28;20876;-85
2023/04/02 03:06:33;;;;;;;1.43;0.93;;;;;;;;;;5072609;28;20380;-85
2023/04/02 03:09:34;;;;;;;1.50;0.90;;;;;;;;;;5073184;28;20426;-85
2023/04/02 03:12:24;;;;;;;1.15;0.90;;;;;;;;;;4971989;28;20455;-84
2023/04/02 03:14:57;;;;;;;2.10;1.10;;;;;;;;;;5073522;28;20409;-85
2023/04/02 03:17:28;;;;;;;1.05;0.85;;;;;;;;;;5072934;28;20376;-85
2023/04/02 03:19:58;;;;;;;1.08;0.88;;;;;;;;;;5055133;28;20386;-84
2023/04/02 03:22:24;;;;;;;2.17;1.10;;;;;;;;;;5061061;28;20380;-84
2023/04/02 03:24:59;;;;;;;2.28;1.08;;;;;;;;;;5085107;28;20866;-84
2023/04/02 03:27:31;;;;;;;1.67;1.25;;;;;;;;;;5072260;28;20459;-84
2023/04/02 03:30:04;;;;;;;1.23;1.13;;;;;;;;;;5066237;28;20419;-84
2023/04/02 03:32:35;;;;;;;1.95;1.20;;;;;;;;;;5082390;28;20404;-84
2023/04/02 03:35:10;;;;;;;1.42;0.98;;;;;;;;;;5085399;28;20418;-84
2023/04/02 03:37:42;;;;;;;1.67;1.23;;;;;;;;;;5088407;28;20364;-84
2023/04/02 03:40:30;;;;;;;1.33;1.20;;;;;;;;;;5094181;28;20522;-83
2023/04/02 03:43:12;;;;;;;1.25;1.08;;;;;;;;;;5083723;28;20390;-85
2023/04/02 03:45:40;;;;;;;1.15;1.02;;;;;;;;;;5074849;28;20407;-84
2023/04/02 03:48:13;;;;;;;1.43;1.17;;;;;;;;;;5073470;28;20388;-84
2023/04/02 03:50:53;;;;;;;1.63;1.13;;;;;;;;;;5072836;28;20683;-84
2023/04/02 03:53:22;;;;;;;1.48;1.38;;;;;;;;;;5072378;28;20372;-84
2023/04/02 03:55:49;;;;;;;1.40;1.20;;;;;;;;;;5072339;28;20400;-85
2023/04/02 03:58:18;;;;;;;1.85;1.50;;;;;;;;;;5072394;28;20407;-85
2023/04/02 04:01:03;;;;;;;1.40;1.30;;;;;;;;;;5072438;28;20415;-85
2023/04/02 04:03:49;;;;;;;1.98;1.30;;;;;;;;;;5054174;28;20777;-84
2023/04/02 04:06:19;;;;;;;1.92;1.40;;;;;;;;;;5072344;28;20383;-85
2023/04/02 04:08:53;;;;;;;1.20;1.08;;;;;;;;;;5071891;28;20379;-85
2023/04/02 04:11:26;;;;;;;1.23;1.13;;;;;;;;;;5072005;28;20470;-85
2023/04/02 04:13:52;;;;;;;2.00;1.20;;;;;;;;;;5071905;28;20781;-84
2023/04/02 04:16:25;;;;;;;1.58;1.20;;;;;;;;;;5071763;28;20380;-85
2023/04/02 04:18:55;;;;;;;2.00;1.00;;;;;;;;;;5051240;28;20446;-86
2023/04/02 04:21:35;;;;;;;1.90;1.10;;;;;;;;;;5053782;28;20409;-86
2023/04/02 04:24:03;;;;;;;1.35;1.23;;;;;;;;;;5062410;28;20849;-86
2023/04/02 04:26:34;;;;;;;1.05;0.95;;;;;;;;;;5064629;28;20383;-86
2023/04/02 04:29:11;;;;;;;1.25;1.10;;;;;;;;;;5070256;28;20383;-86
2023/04/02 04:31:45;;;;;;;1.33;1.00;;;;;;;;;;5070275;28;20404;-85
2023/04/02 04:34:15;;;;;;;1.73;0.90;;;;;;;;;;5052398;28;21035;-86
2023/04/02 04:36:46;;;;;;;1.57;0.90;;;;;;;;;;5071567;28;20390;-86
2023/04/02 04:39:16;;;;;;;1.10;1.00;;;;;;;;;;5072300;28;20376;-85
2023/04/02 04:41:42;;;;;;;0.90;0.80;;;;;;;;;;5071619;28;20380;-86
2023/04/02 04:44:08;;;;;;;1.40;1.00;;;;;;;;;;5071384;28;20387;-85
2023/04/02 04:46:38;;;;;;;0.90;0.90;;;;;;;;;;5053489;28;20380;-86
2023/04/02 04:49:22;;;;;;;1.30;0.90;;;;;;;;;;5071401;28;20437;-85
2023/04/02 04:51:51;;;;;;;1.67;0.90;;;;;;;;;;5074677;28;20391;-85
2023/04/02 04:54:18;;;;;;;1.15;0.88;;;;;;;;;;5071328;28;20410;-85
2023/04/02 04:56:47;;;;;;;1.48;0.90;;;;;;;;;;5071255;28;20927;-84
2023/04/02 04:59:25;;;;;;;0.82;0.82;;;;;;;;;;5053210;28;20952;-84
2023/04/02 05:01:51;;;;;;;1.00;0.80;;;;;;;;;;5071022;28;20857;-84
2023/04/02 05:04:26;;;;;;;1.45;1.00;;;;;;;;;;5059103;28;20465;-84
2023/04/02 05:07:15;;;;;;;0.80;0.80;;;;;;;;;;5072991;28;20407;-84
2023/04/02 05:09:44;;;;;;;2.00;0.90;;;;;;;;;;5061190;28;20745;-84
2023/04/02 05:12:19;;;;;;;1.33;0.75;;;;;;;;;;5054901;28;20433;-84
2023/04/02 05:15:04;;;;;;;1.10;0.85;;;;;;;;;;5071018;28;20734;-85
2023/04/02 05:17:36;;;;;;;0.65;0.60;;;;;;;;;;5058722;28;20932;-85
2023/04/02 05:20:17;;;;;;;0.73;0.52;;;;;;;;;;5071035;28;20391;-84
2023/04/02 05:22:43;;;;;;;1.10;0.83;;;;;;;;;;5071104;28;20384;-84
2023/04/02 05:25:22;;;;;;;1.45;0.93;;;;;;;;;;5070958;28;20876;-84
2023/04/02 05:27:56;;;;;;;1.00;0.70;;;;;;;;;;5052821;28;20745;-83
2023/04/02 05:30:30;;;;;;;2.50;1.95;;;;;;;;;;5070343;28;20384;-83
2023/04/02 05:33:03;;;;;;;1.00;0.90;;;;;;;;;;5069751;28;20412;-84
2023/04/02 05:35:32;;;;;;;0.77;0.77;;;;;;;;;;5058957;28;20469;-84
2023/04/02 05:38:00;;;;;;;2.03;0.80;;;;;;;;;;5033793;28;20424;-85
2023/04/02 05:40:33;;;;;;;0.60;0.60;;;;;;;;;;5050549;28;20469;-85
2023/04/02 05:43:00;;;;;;;1.17;0.80;;;;;;;;;;5071102;28;20383;-84
2023/04/02 05:45:34;;;;;;;1.00;0.80;;;;;;;;;;5081600;28;20447;-84
2023/04/02 05:48:03;;;;;;;0.73;0.68;;;;;;;;;;5069738;28;20748;-84
2023/04/02 05:50:32;;;;;;;0.95;0.70;;;;;;;;;;5070533;28;20388;-84
2023/04/02 05:53:18;;;;;;;1.00;0.80;;;;;;;;;;5064649;28;20381;-84
2023/04/02 05:55:49;;;;;;;0.80;0.55;;;;;;;;;;5064708;28;20887;-84
2023/04/02 05:58:36;;;;;;;0.50;0.50;;;;;;;;;;5063707;28;20376;-85
2023/04/02 06:01:06;;;;;;;0.75;0.57;;;;;;;;;;5058475;28;20381;-84
2023/04/02 06:03:51;;;;;;;0.82;0.70;;;;;;;;;;5061353;28;20433;-85
2023/04/02 06:06:43;;;;;;;0.40;0.40;;;;;;;;;;5037923;28;20408;-84
2023/04/02 06:09:17;;;;;;;1.52;1.27;;;;;;;;;;5054575;28;20388;-85
2023/04/02 06:11:48;;;;;;;1.23;0.60;;;;;;;;;;5055792;28;20465;-85
2023/04/02 06:14:15;;;;;;;1.10;1.00;;;;;;;;;;5071894;28;20384;-84
2023/04/02 06:16:43;;;;;;;1.23;0.88;;;;;;;;;;5068141;28;20819;-84
2023/04/02 06:19:18;;;;;;;1.40;1.10;;;;;;;;;;5072683;28;20455;-83
2023/04/02 06:21:48;;;;;;;1.80;0.90;;;;;;;;;;5070734;28;20398;-85
2023/04/02 06:24:16;;;;;;;1.65;1.15;;;;;;;;;;5053082;28;20387;-85
2023/04/02 06:26:45;;;;;;;1.52;1.42;;;;;;;;;;5063642;28;20469;-85
2023/04/02 06:29:14;;;;;;;1.63;1.25;;;;;;;;;;5071303;28;20868;-85
2023/04/02 06:31:42;;;;;;;1.02;0.88;;;;;;;;;;5064643;28;20905;-84
2023/04/02 06:34:14;;;;;;;1.38;0.65;;;;;;;;;;5068582;28;20400;-84
2023/04/02 06:36:40;;;;;;;1.05;0.90;;;;;;;;;;5068570;28;20391;-87
2023/04/02 06:39:08;;;;;;;1.47;0.80;;;;;;;;;;5066434;28;20380;-85
2023/04/02 06:41:34;;;;;;;1.10;1.00;;;;;;;;;;5070746;28;20430;-85
2023/04/02 06:44:11;;;;;;;0.85;0.77;;;;;;;;;;5082292;28;20377;-85
2023/04/02 06:46:43;;;;;;;1.10;0.80;;;;;;;;;;5078567;28;20425;-85
2023/04/02 06:49:13;;;;;;;0.98;0.70;;;;;;;;;;5072831;28;20390;-85
2023/04/02 06:51:40;;;;;;;1.30;0.90;;;;;;;;;;5073061;28;20384;-84
2023/04/02 06:54:12;;;;;;;1.08;0.80;;;;;;;;;;5065127;28;20392;-85
2023/04/02 06:56:38;;;;;;;1.00;0.83;;;;;;;;;;5073558;28;20460;-85
2023/04/02 06:59:06;;;;;;;1.30;0.80;;;;;;;;;;5064938;28;20392;-85
2023/04/02 07:01:34;;;;;;;0.93;0.88;;;;;;;;;;5082606;28;20376;-87
2023/04/02 07:04:00;;;;;;;1.30;0.90;;;;;;;;;;5079366;28;20386;-80
2023/04/02 07:06:26;;;;;;;1.10;0.82;;;;;;;;;;5064389;28;20413;-78
2023/04/02 07:08:52;;;;;;;1.02;1.00;;;;;;;;;;5075331;28;20380;-79
2023/04/02 07:11:20;;;;;;;1.38;0.95;;;;;;;;;;5082708;28;20429;-81
2023/04/02 07:13:46;;;;;;;1.40;1.10;;;;;;;;;;5074758;28;20383;-80
2023/04/02 07:16:17;;;;;;;0.88;0.80;;;;;;;;;;5073849;28;20442;-81
2023/04/02 07:18:43;;;;;;;1.10;1.00;;;;;;;;;;5073662;28;20463;-81
2023/04/02 07:21:09;;;;;;;2.00;1.00;;;;;;;;;;5073739;28;20379;-82
2023/04/02 07:23:36;;;;;;;1.20;1.00;;;;;;;;;;5073227;28;20425;-83
2023/04/02 07:26:02;;;;;;;1.50;0.90;;;;;;;;;;5073603;28;20376;-82
2023/04/02 07:28:28;;;;;;;1.02;0.80;;;;;;;;;;5072862;28;20396;-84
2023/04/02 07:30:55;;;;;;;1.55;0.98;;;;;;;;;;5072567;28;20392;-80
2023/04/02 07:33:26;;;;;;;1.10;1.00;;;;;;;;;;5075797;28;20477;-81
2023/04/02 07:35:53;;;;;;;0.90;0.90;;;;;;;;;;5072524;28;20403;-83
2023/04/02 07:38:19;;;;;;;1.05;0.90;;;;;;;;;;5072684;28;20380;-80
2023/04/02 07:40:45;;;;;;;1.77;1.17;;;;;;;;;;5072531;28;20383;-81
2023/04/02 07:43:11;;;;;;;1.00;0.90;;;;;;;;;;5071991;28;20383;-82
2023/04/02 07:45:37;;;;;;;1.10;1.00;;;;;;;;;;5065644;28;20403;-83
2023/04/02 07:48:07;;;;;;;1.52;1.00;;;;;;;;;;5056853;28;20975;-83
2023/04/02 07:50:33;;;;;;;0.90;0.90;;;;;;;;;;5063046;28;20380;-83
2023/04/02 07:52:59;;;;;;;1.13;0.98;;;;;;;;;;5067022;28;20389;-80
2023/04/02 07:55:25;;;;;;;1.50;1.00;;;;;;;;;;5072188;28;20399;-82
2023/04/02 07:57:53;;;;;;;0.93;0.88;;;;;;;;;;5072026;28;20379;-81
2023/04/02 08:00:19;;;;;;;1.00;0.80;;;;;;;;;;5070808;28;20816;-80
2023/04/02 08:02:46;;;;;;;1.80;0.93;;;;;;;;;;5072179;28;20399;-82
2023/04/02 08:05:12;;;;;;;1.38;1.02;;;;;;;;;;5070840;28;20823;-82
2023/04/02 08:07:38;;;;;;;1.00;0.90;;;;;;;;;;5071819;28;20402;-81
2023/04/02 08:10:05;;;;;;;1.02;0.90;;;;;;;;;;5072002;28;20396;-82
2023/04/02 08:12:31;;;;;;;1.30;0.73;;;;;;;;;;5064998;28;20905;-82
2023/04/02 08:14:57;;;;;;;0.85;0.73;;;;;;;;;;5064879;28;20500;-82
2023/04/02 08:17:23;;;;;;;1.70;1.20;;;;;;;;;;5068537;28;20475;-82
2023/04/02 08:19:49;;;;;;;1.00;0.90;;;;;;;;;;5071733;28;20722;-82
2023/04/02 08:22:16;;;;;;;1.60;1.13;;;;;;;;;;5071545;28;20372;-82
2023/04/02 08:24:42;;;;;;;1.20;1.00;;;;;;;;;;5071786;28;20466;-82
2023/04/02 08:27:08;;;;;;;1.50;1.20;;;;;;;;;;5071635;28;20479;-80
2023/04/02 08:29:34;;;;;;;0.90;0.75;;;;;;;;;;5068096;28;20428;-81
2023/04/02 08:32:00;;;;;;;1.17;0.88;;;;;;;;;;5069029;28;20483;-82
2023/04/02 08:34:26;;;;;;;1.20;0.80;;;;;;;;;;5071505;28;20404;-81
2023/04/02 08:36:56;;;;;;;2.03;1.40;;;;;;;;;;5071511;28;20431;-81
2023/04/02 08:39:22;;;;;;;1.90;1.20;;;;;;;;;;5071484;28;20380;-82
2023/04/02 08:42:08;;;;;;;1.60;0.90;;;;;;;;;;5070990;28;20372;-82
2023/04/02 08:45:00;;;;;;;1.00;0.50;;;;;;;;;;5017193;28;20971;-81
2023/04/02 08:47:29;;;;;;;1.63;0.80;;;;;;;;;;5070466;28;20748;-82
2023/04/02 08:49:59;;;;;;;0.70;0.60;;;;;;;;;;5061796;28;20403;-81
2023/04/02 08:52:28;;;;;;;1.70;0.60;;;;;;;;;;5055530;28;20470;-81
2023/04/02 08:54:55;;;;;;;0.95;0.57;;;;;;;;;;5063192;28;20430;-83
2023/04/02 08:57:27;;;;;;;1.20;0.70;;;;;;;;;;5074412;28;20849;-81
2023/04/02 09:00:25;;;;;;;1.35;0.80;;;;;;;;;;5067820;28;20853;-82
2023/04/02 09:02:57;;;;;;;1.23;0.50;;;;;;;;;;5010116;28;20794;-81
2023/04/02 09:05:24;;;;;;;0.40;0.40;;;;;;;;;;5070547;28;20922;-82
2023/04/02 09:07:51;;;;;;;0.98;0.77;;;;;;;;;;5070956;28;20396;-81
2023/04/02 09:10:18;;;;;;;0.90;0.70;;;;;;;;;;5052724;28;20388;-82
2023/04/02 09:12:47;;;;;;;1.20;0.60;;;;;;;;;;5071059;28;20411;-81
2023/04/02 09:15:13;;;;;;;0.97;0.60;;;;;;;;;;5067887;28;20412;-80
2023/04/02 09:17:39;;;;;;;0.70;0.60;;;;;;;;;;5071181;28;20898;-82
2023/04/02 09:20:16;;;;;;;1.00;0.50;;;;;;;;;;5073282;28;20440;-84
2023/04/02 09:22:43;;;;;;;0.45;0.45;;;;;;;;;;5075253;28;20372;-80
2023/04/02 09:25:30;;;;;;;0.63;0.40;;;;;;;;;;5075047;28;20868;-80
2023/04/02 09:27:57;;;;;;;0.80;0.60;;;;;;;;;;5074739;28;20414;-82
2023/04/02 09:30:29;;;;;;;0.40;0.40;;;;;;;;;;5067317;28;20385;-80
2023/04/02 09:32:57;;;;;;;0.40;0.40;;;;;;;;;;5074927;28;20403;-82
2023/04/02 09:35:27;;;;;;;0.55;0.45;;;;;;;;;;5074821;28;20406;-82
2023/04/02 09:38:12;;;;;;;0.63;0.50;;;;;;;;;;5057278;28;20379;-82
2023/04/02 09:40:44;;;;;;;0.50;0.30;;;;;;;;;;5074567;28;20462;-84
2023/04/02 09:43:12;;;;;;;0.40;0.40;;;;;;;;;;5077296;28;20412;-82
2023/04/02 09:45:39;;;;;;;0.65;0.40;;;;;;;;;;5074852;28;20732;-81
2023/04/02 09:48:15;;;;;;;0.50;0.40;;;;;;;;;;5074578;28;20383;-80
2023/04/02 09:50:41;;;;;;;0.60;0.33;;;;;;;;;;5074580;28;20388;-80
2023/04/02 09:53:25;;;;;;;1.10;0.68;;;;;;;;;;5069358;28;20395;-82
2023/04/02 09:56:06;;;;;;;0.65;0.40;;;;;;;;;;5073278;28;20892;-81
2023/04/02 09:58:32;;;;;;;0.77;0.38;;;;;;;;;;5074539;28;20395;-82
2023/04/02 10:00:58;;;;;;;0.50;0.30;;;;;;;;;;5075025;28;20949;-84
2023/04/02 10:03:25;;;;;;;0.60;0.40;;;;;;;;;;5074511;28;20382;-83
2023/04/02 10:06:11;;;;;;;0.50;0.30;;;;;;;;;;5074435;28;20398;-84
2023/04/02 10:08:38;;;;;;;0.90;0.30;;;;;;;;;;5074224;28;20383;-86
2023/04/02 10:11:09;;;;;;;0.70;0.30;;;;;;;;;;5072227;28;20388;-85
2023/04/02 10:13:56;;;;;;;0.30;0.30;;;;;;;;;;5074103;28;20368;-84
2023/04/02 10:16:31;;;;;;;0.47;0.32;;;;;;;;;;5065637;28;20491;-82
2023/04/02 10:18:58;;;;;;;0.30;0.20;;;;;;;;;;5073640;28;20439;-84
2023/04/02 10:21:26;;;;;;;0.45;0.30;;;;;;;;;;5074024;28;20493;-80
2023/04/02 10:23:52;;;;;;;0.80;0.80;;;;;;;;;;5073946;28;20462;-84
2023/04/02 10:26:20;;;;;;;0.20;0.20;;;;;;;;;;5065384;28;20390;-83
2023/04/02 10:28:56;;;;;;;1.02;0.40;;;;;;;;;;5080316;28;20954;-82
2023/04/02 10:31:26;;;;;;;0.52;0.40;;;;;;;;;;5081903;28;20409;-83
2023/04/02 10:34:01;;;;;;;0.50;0.40;;;;;;;;;;5074993;28;20841;-83
2023/04/02 10:36:47;;;;;;;0.70;0.40;;;;;;;;;;5088193;28;20499;-83
2023/04/02 10:39:20;;;;;;;0.50;0.30;;;;;;;;;;5084324;28;20407;-81
2023/04/02 10:42:04;;;;;;;0.60;0.40;;;;;;;;;;5077623;28;20372;-80
2023/04/02 10:44:36;;;;;;;1.45;0.50;;;;;;;;;;5084975;28;20406;-80
2023/04/02 10:47:15;;;;;;;1.00;0.50;;;;;;;;;;5078233;28;20444;-81
2023/04/02 10:49:54;;;;;;;1.00;0.30;;;;;;;;;;5074686;28;20376;-81
2023/04/02 10:52:20;;;;;;;1.70;0.43;;;;;;;;;;5074283;28;20393;-82
2023/04/02 10:54:46;;;;;;;0.50;0.30;;;;;;;;;;5073829;28;20396;-79
2023/04/02 10:57:28;;;;;;;0.20;0.20;;;;;;;;;;5074296;28;20984;-82
2023/04/02 10:59:57;;;;;;;0.32;0.32;;;;;;;;;;5062046;28;20382;-82
2023/04/02 11:02:23;;;;;;;0.70;0.50;;;;;;;;;;5054888;28;20872;-81
2023/04/02 11:04:50;;;;;;;0.93;0.60;;;;;;;;;;5054422;28;20399;-81
2023/04/02 11:07:22;;;;;;;0.55;0.43;;;;;;;;;;5072035;28;20376;-81
2023/04/02 11:09:51;;;;;;;0.65;0.47;;;;;;;;;;5073639;28;20390;-81
2023/04/02 11:12:40;;;;;;;1.17;0.40;;;;;;;;;;5073163;28;20372;-81
2023/04/02 11:15:13;;;;;;;0.50;0.50;;;;;;;;;;5073483;28;20407;-81
2023/04/02 11:17:39;;;;;;;0.30;0.30;;;;;;;;;;5055968;28;20447;-82
2023/04/02 11:20:24;;;;;;;0.90;0.30;;;;;;;;;;5074023;28;20444;-82
2023/04/02 11:23:09;;;;;;;0.20;0.20;;;;;;;;;;5073428;28;20419;-83
2023/04/02 11:25:35;;;;;;;0.55;0.30;;;;;;;;;;5073797;28;20944;-82
2023/04/02 11:28:19;;;;;;;0.30;0.20;;;;;;;;;;5073796;28;20415;-81
2023/04/02 11:30:47;;;;;;;0.40;0.20;;;;;;;;;;5072332;28;20383;-82
2023/04/02 11:33:25;;;;;;;0.20;0.20;;;;;;;;;;5076230;28;20450;-82
2023/04/02 11:35:51;;;;;;;0.60;0.30;;;;;;;;;;5073433;28;20407;-81
2023/04/02 11:38:18;;;;;;;0.30;0.30;;;;;;;;;;5073620;28;20425;-82
2023/04/02 11:40:46;;;;;;;0.25;0.25;;;;;;;;;;5073513;28;20388;-82
2023/04/02 11:43:30;;;;;;;0.20;0.20;;;;;;;;;;5054707;28;20931;-82
2023/04/02 11:45:57;;;;;;;0.20;0.10;;;;;;;;;;5073618;28;20395;-81
2023/04/02 11:48:23;;;;;;;0.50;0.20;;;;;;;;;;5073347;28;20872;-82
2023/04/02 11:50:49;;;;;;;0.30;0.10;;;;;;;;;;5073595;28;20390;-82
2023/04/02 11:53:16;;;;;;;0.32;0.20;;;;;;;;;;5073350;28;20392;-82
2023/04/02 11:55:43;;;;;;;0.20;0.20;;;;;;;;;;5073438;28;20407;-82
2023/04/02 11:58:21;;;;;;;0.32;0.20;;;;;;;;;;5055239;28;20392;-82
2023/04/02 12:00:50;;;;;;;0.40;0.20;;;;;;;;;;5073161;28;20387;-81
2023/04/02 12:03:27;;;;;;;0.60;0.40;;;;;;;;;;5073014;28;20394;-81
2023/04/02 12:06:01;;;;;;;0.40;0.20;;;;;;;;;;5073112;28;20481;-81
2023/04/02 12:08:38;;;;;;;0.60;0.30;;;;;;;;;;5072821;28;20462;-81
2023/04/02 12:11:05;;;;;;;0.30;0.30;;;;;;;;;;5073079;28;20376;-81
2023/04/02 12:13:40;;;;;;;0.30;0.22;;;;;;;;;;5072791;28;20372;-80
2023/04/02 12:16:10;;;;;;;0.30;0.10;;;;;;;;;;5072880;28;20892;-81
2023/04/02 12:18:41;;;;;;;0.80;0.30;;;;;;;;;;5072654;28;20553;-81
2023/04/02 12:21:07;;;;;;;0.50;0.20;;;;;;;;;;5072884;28;20491;-81
2023/04/02 12:23:35;;;;;;;0.30;0.30;;;;;;;;;;5054733;28;20384;-81
2023/04/02 12:26:02;;;;;;;0.35;0.20;;;;;;;;;;5072720;28;20380;-81
2023/04/02 12:28:30;;;;;;;0.55;0.20;;;;;;;;;;5072790;28;20466;-81
2023/04/02 12:31:11;;;;;;;0.50;0.23;;;;;;;;;;5063721;28;20411;-81
2023/04/02 12:33:41;;;;;;;0.33;0.30;;;;;;;;;;5072646;28;20883;-81
2023/04/02 12:36:27;;;;;;;0.45;0.22;;;;;;;;;;5072550;28;20430;-81
2023/04/02 12:38:55;;;;;;;0.20;0.20;;;;;;;;;;5072542;28;20433;-81
2023/04/02 12:41:23;;;;;;;2.63;0.40;;;;;;;;;;5056207;28;20451;-81
2023/04/02 12:44:10;;;;;;;0.30;0.25;;;;;;;;;;5078245;28;20896;-81
2023/04/02 12:46:36;;;;;;;0.20;0.20;;;;;;;;;;5072246;28;20780;-81
2023/04/02 12:49:21;;;;;;;0.20;0.20;;;;;;;;;;5054371;28;20399;-80
2023/04/02 12:51:47;;;;;;;0.30;0.20;;;;;;;;;;5071695;28;20376;-79
2023/04/02 12:54:16;;;;;;;0.10;0.10;;;;;;;;;;5053740;28;20399;-79
2023/04/02 12:56:42;;;;;;;0.10;0.10;;;;;;;;;;5072950;28;20443;-79
2023/04/02 12:59:27;;;;;;;0.30;0.10;;;;;;;;;;5074943;28;20471;-79
2023/04/02 13:01:57;;;;;;;0.47;0.20;;;;;;;;;;5071601;28;20370;-80
2023/04/02 13:04:23;;;;;;;0.00;0.00;;;;;;;;;;5071809;28;20380;-79
2023/04/02 13:06:57;;;;;;;0.00;0.00;;;;;;;;;;5072066;28;20852;-79
2023/04/02 13:09:29;;;;;;;0.00;0.00;;;;;;;;;;5072409;28;20376;-79
2023/04/02 13:11:55;;;;;;;0.08;0.00;;;;;;;;;;5071515;28;20380;-80
2023/04/02 13:14:23;;;;;;;0.10;0.10;;;;;;;;;;5056792;28;20413;-86
2023/04/02 13:16:49;;;;;;;0.10;0.10;;;;;;;;;;5069658;28;20405;-80
2023/04/02 13:19:18;;;;;;;0.40;0.13;;;;;;;;;;5072003;28;20380;-80
2023/04/02 13:21:45;;;;;;;0.10;0.10;;;;;;;;;;5064808;28;20382;-80
2023/04/02 13:24:40;;;;;;;0.10;0.10;;;;;;;;;;5064653;28;20381;-79
2023/04/02 13:27:06;;;;;;;0.70;0.10;;;;;;;;;;5076793;28;20450;-82
2023/04/02 13:29:33;;;;;;;0.30;0.22;;;;;;;;;;5051001;28;20749;-79
2023/04/02 13:32:00;;;;;;;0.28;0.20;;;;;;;;;;5070727;28;20453;-81
2023/04/02 13:34:27;;;;;;;0.10;0.10;;;;;;;;;;5071226;28;20388;-82
2023/04/02 13:36:53;;;;;;;0.10;0.10;;;;;;;;;;5071602;28;20483;-81
2023/04/02 13:39:19;;;;;;;0.10;0.10;;;;;;;;;;5072063;28;20426;-83
2023/04/02 13:41:55;;;;;;;0.20;0.10;;;;;;;;;;5070773;28;20433;-82
2023/04/02 13:44:23;;;;;;;0.20;0.20;;;;;;;;;;5070781;28;20376;-81
2023/04/02 13:46:50;;;;;;;0.32;0.20;;;;;;;;;;5068338;28;20387;-81
2023/04/02 13:49:17;;;;;;;0.10;0.10;;;;;;;;;;5050914;28;20380;-81
2023/04/02 13:51:47;;;;;;;0.08;0.00;;;;;;;;;;5070904;28;20380;-81
2023/04/02 13:54:21;;;;;;;0.10;0.10;;;;;;;;;;5053384;28;20383;-80
2023/04/02 13:56:47;;;;;;;0.10;0.10;;;;;;;;;;5052545;28;20784;-80
2023/04/02 13:59:13;;;;;;;0.17;0.13;;;;;;;;;;5071428;28;20380;-82
2023/04/02 14:01:40;;;;;;;0.40;0.30;;;;;;;;;;5071043;28;20421;-82
2023/04/02 14:04:07;;;;;;;0.20;0.10;;;;;;;;;;5078900;28;20372;-82
2023/04/02 14:06:42;;;;;;;0.10;0.10;;;;;;;;;;5074257;28;20384;-81
2023/04/02 14:09:28;;;;;;;0.20;0.20;;;;;;;;;;5075591;28;20376;-81
2023/04/02 14:11:54;;;;;;;0.10;0.10;;;;;;;;;;5056901;28;20398;-81
2023/04/02 14:14:31;;;;;;;0.00;0.00;;;;;;;;;;5076629;28;20443;-83
2023/04/02 14:17:17;;;;;;;0.10;0.10;;;;;;;;;;5078427;28;20390;-81
2023/04/02 14:20:10;;;;;;;0.57;0.43;;;;;;;;;;5079874;28;20383;-82
2023/04/02 14:22:36;;;;;;;0.32;0.30;;;;;;;;;;5075463;28;20372;-81
2023/04/02 14:25:21;;;;;;;1.80;0.47;;;;;;;;;;5084219;28;20433;-82
2023/04/02 14:27:47;;;;;;;1.50;0.22;;;;;;;;;;5079553;28;20930;-82
2023/04/02 14:30:16;;;;;;;0.20;0.20;;;;;;;;;;5075889;28;20379;-81
2023/04/02 14:32:52;;;;;;;0.20;0.20;;;;;;;;;;5069165;28;20479;-83
2023/04/02 14:35:35;;;;;;;0.40;0.20;;;;;;;;;;5072459;28;20499;-82
2023/04/02 14:38:01;;;;;;;0.40;0.30;;;;;;;;;;5074336;28;20382;-81
2023/04/02 14:40:40;;;;;;;0.27;0.10;;;;;;;;;;5074773;28;20866;-85
2023/04/02 14:43:10;;;;;;;0.20;0.20;;;;;;;;;;5063699;28;20822;-83
2023/04/02 14:45:36;;;;;;;0.60;0.20;;;;;;;;;;5074698;28;20785;-83
2023/04/02 14:48:12;;;;;;;0.13;0.13;;;;;;;;;;5074923;28;20410;-83
2023/04/02 14:50:40;;;;;;;0.20;0.20;;;;;;;;;;5073430;28;20400;-83
2023/04/02 14:53:15;;;;;;;0.17;0.17;;;;;;;;;;5061441;28;20372;-83
2023/04/02 14:55:45;;;;;;;0.40;0.20;;;;;;;;;;5074268;28;20420;-80
2023/04/02 14:58:20;;;;;;;0.28;0.25;;;;;;;;;;5065637;28;20762;-78
2023/04/02 15:01:07;;;;;;;0.40;0.20;;;;;;;;;;5066326;28;20379;-80
2023/04/02 15:03:42;;;;;;;0.30;0.20;;;;;;;;;;5045155;28;20382;-80
2023/04/02 15:06:13;;;;;;;0.45;0.10;;;;;;;;;;5072620;28;20479;-80
2023/04/02 15:08:44;;;;;;;0.80;0.20;;;;;;;;;;5054276;28;20439;-79